createdAt,value
2023-01-19T00:28:32.830Z,992.5830000000001
2023-01-19T00:58:50.671Z,992.712
2023-01-19T01:29:08.782Z,993.097
2023-01-19T01:59:26.184Z,993.3
2023-01-19T03:00:03.135Z,993.079
2023-01-19T03:30:22.056Z,993.059
2023-01-19T04:00:41.971Z,993.046
2023-01-19T04:31:00.677Z,993.202
2023-01-19T05:01:18.833Z,993.317
2023-01-19T05:31:37.129Z,993.2989
2023-01-19T06:01:57.196Z,993.692
2023-01-19T06:32:14.098Z,993.8789
2023-01-19T07:02:31.742Z,993.985
2023-01-19T07:32:50.482Z,993.9779
2023-01-19T08:03:06.880Z,993.9428999999999
2023-01-19T08:33:42.368Z,994.0139999999999
2023-01-19T09:04:01.505Z,994.4019999999999
2023-01-19T09:34:23.833Z,994.523
2023-01-19T10:04:43.871Z,994.59
2023-01-19T10:34:59.899Z,994.7460000000001
2023-01-19T11:05:18.200Z,994.6739
2023-01-19T11:35:36.024Z,994.735
2023-01-19T12:05:53.910Z,994.5239999999999
2023-01-19T12:36:12.578Z,994.556
2023-01-19T13:06:30.309Z,994.472
2023-01-19T13:36:49.073Z,994.5621000000001
2023-01-19T14:07:04.967Z,994.73
2023-01-19T14:37:24.029Z,994.9389
2023-01-19T15:07:39.958Z,995.076
2023-01-19T15:37:56.583Z,995.2660000000001
2023-01-19T16:08:13.790Z,995.3779
2023-01-19T16:38:30.802Z,995.4760000000001
2023-01-19T17:08:48.189Z,995.71
2023-01-19T17:39:04.630Z,995.852
2023-01-19T18:09:26.667Z,996.077
2023-01-19T18:39:43.816Z,996.1619999999999
2023-01-19T19:10:05.790Z,996.27
2023-01-19T19:40:24.500Z,996.416
2023-01-19T20:10:43.012Z,996.6129
2023-01-19T20:41:01.126Z,996.727
2023-01-19T21:11:17.683Z,996.956
2023-01-19T21:41:35.414Z,997.19
2023-01-19T22:11:51.347Z,997.3128999999999
2023-01-19T22:42:08.641Z,997.591
2023-01-19T23:12:24.875Z,997.6999000000001
2023-01-19T23:42:42.810Z,997.944
